Dabneys, Virginia
Current Conditions -  °F | °C
As of 5:35 AM on Saturday 01 Nov 2014 (Local Time) from K7W4 Reporting Station
Broken Clouds Broken Clouds  
Wind Chill: 46°   Ceiling: 4700
Heat Index: 46°   Visibility: 10mi
Dew Point: 37°   Wind: 0mph
Humidity: 70%   Direction: NA
Pressure: 29.75"   Gusts: NA
Location:  37.715°N, 77.8422°W
Report Text: K7W4 010935Z AUTO 00000KT 10SM BKN047 08/03 A2975 RMK AO1 T00760025
Loading
Personal Weather Stations






























Interactive Weather Map
Tropical Storm Tracking
New forecast layout! Learn more

10-Day Weather Forecast

Advertisements
Track Severe Weather on mobile